sensor_id;sensor_type;location;lat;lon;timestamp;temperature;humidity
21306;DHT22;10812;51.838;5.838;2022-07-21T00:02:10;20.70;99.90
21306;DHT22;10812;51.838;5.838;2022-07-21T00:04:38;20.70;99.90
21306;DHT22;10812;51.838;5.838;2022-07-21T00:07:06;20.80;99.90
21306;DHT22;10812;51.838;5.838;2022-07-21T00:09:34;20.80;99.90
21306;DHT22;10812;51.838;5.838;2022-07-21T00:12:03;20.80;99.90
21306;DHT22;10812;51.838;5.838;2022-07-21T00:14:33;20.70;99.90
21306;DHT22;10812;51.838;5.838;2022-07-21T00:17:01;20.70;99.90
21306;DHT22;10812;51.838;5.838;2022-07-21T00:19:29;20.60;99.90
21306;DHT22;10812;51.838;5.838;2022-07-21T00:21:57;20.60;99.90
21306;DHT22;10812;51.838;5.838;2022-07-21T00:24:25;20.60;99.90
21306;DHT22;10812;51.838;5.838;2022-07-21T00:38:27;20.50;99.90
21306;DHT22;10812;51.838;5.838;2022-07-21T00:40:55;20.50;99.90
21306;DHT22;10812;51.838;5.838;2022-07-21T00:43:23;20.50;99.90
21306;DHT22;10812;51.838;5.838;2022-07-21T00:45:52;20.40;99.90
21306;DHT22;10812;51.838;5.838;2022-07-21T00:48:21;20.40;99.90
21306;DHT22;10812;51.838;5.838;2022-07-21T00:50:49;20.40;99.90
21306;DHT22;10812;51.838;5.838;2022-07-21T00:53:17;20.40;99.90
21306;DHT22;10812;51.838;5.838;2022-07-21T00:55:47;20.40;99.90
21306;DHT22;10812;51.838;5.838;2022-07-21T00:58:15;20.40;99.90
21306;DHT22;10812;51.838;5.838;2022-07-21T01:00:43;20.30;99.90
21306;DHT22;10812;51.838;5.838;2022-07-21T01:03:11;20.30;99.90
21306;DHT22;10812;51.838;5.838;2022-07-21T01:05:39;20.30;99.90
21306;DHT22;10812;51.838;5.838;2022-07-21T01:08:07;20.30;99.90
21306;DHT22;10812;51.838;5.838;2022-07-21T01:10:36;20.30;99.90
21306;DHT22;10812;51.838;5.838;2022-07-21T01:13:06;20.30;99.90
21306;DHT22;10812;51.838;5.838;2022-07-21T01:15:34;20.30;99.90
21306;DHT22;10812;51.838;5.838;2022-07-21T01:18:02;20.30;99.90
21306;DHT22;10812;51.838;5.838;2022-07-21T01:20:33;20.30;99.90
21306;DHT22;10812;51.838;5.838;2022-07-21T01:23:04;20.30;99.90
21306;DHT22;10812;51.838;5.838;2022-07-21T01:25:32;20.30;99.90
21306;DHT22;10812;51.838;5.838;2022-07-21T01:28:00;20.30;99.90
21306;DHT22;10812;51.838;5.838;2022-07-21T01:30:28;20.20;99.90
21306;DHT22;10812;51.838;5.838;2022-07-21T01:32:57;20.20;99.90
21306;DHT22;10812;51.838;5.838;2022-07-21T01:35:25;20.10;99.90
21306;DHT22;10812;51.838;5.838;2022-07-21T01:37:54;20.10;99.90
21306;DHT22;10812;51.838;5.838;2022-07-21T01:40:24;20.10;99.90
21306;DHT22;10812;51.838;5.838;2022-07-21T01:43:09;20.00;99.90
21306;DHT22;10812;51.838;5.838;2022-07-21T01:45:39;20.00;99.90
21306;DHT22;10812;51.838;5.838;2022-07-21T01:48:08;19.90;99.90
21306;DHT22;10812;51.838;5.838;2022-07-21T01:50:36;19.80;99.90
21306;DHT22;10812;51.838;5.838;2022-07-21T01:53:05;19.80;99.90
21306;DHT22;10812;51.838;5.838;2022-07-21T01:55:34;19.70;99.90
21306;DHT22;10812;51.838;5.838;2022-07-21T01:58:02;19.60;99.90
21306;DHT22;10812;51.838;5.838;2022-07-21T02:00:31;19.60;99.90
21306;DHT22;10812;51.838;5.838;2022-07-21T02:02:59;19.50;99.90
21306;DHT22;10812;51.838;5.838;2022-07-21T02:05:27;19.50;99.90
21306;DHT22;10812;51.838;5.838;2022-07-21T02:07:55;19.40;99.90
21306;DHT22;10812;51.838;5.838;2022-07-21T02:10:23;19.40;99.90
21306;DHT22;10812;51.838;5.838;2022-07-21T02:12:53;19.30;99.90
21306;DHT22;10812;51.838;5.838;2022-07-21T02:15:21;19.30;99.90
21306;DHT22;10812;51.838;5.838;2022-07-21T02:17:49;19.20;99.90
21306;DHT22;10812;51.838;5.838;2022-07-21T02:20:17;19.20;99.90
21306;DHT22;10812;51.838;5.838;2022-07-21T02:22:45;19.20;99.90
21306;DHT22;10812;51.838;5.838;2022-07-21T02:25:14;19.10;99.90
21306;DHT22;10812;51.838;5.838;2022-07-21T02:27:42;19.10;99.90
21306;DHT22;10812;51.838;5.838;2022-07-21T02:30:13;19.10;99.90
21306;DHT22;10812;51.838;5.838;2022-07-21T02:32:41;19.10;99.90
21306;DHT22;10812;51.838;5.838;2022-07-21T02:35:09;19.10;99.90
21306;DHT22;10812;51.838;5.838;2022-07-21T02:37:38;19.10;99.90
21306;DHT22;10812;51.838;5.838;2022-07-21T02:40:07;19.10;99.90
21306;DHT22;10812;51.838;5.838;2022-07-21T02:42:35;19.10;99.90
21306;DHT22;10812;51.838;5.838;2022-07-21T02:45:05;19.20;99.90
21306;DHT22;10812;51.838;5.838;2022-07-21T02:47:47;19.20;99.90
21306;DHT22;10812;51.838;5.838;2022-07-21T02:50:16;19.20;99.90
21306;DHT22;10812;51.838;5.838;2022-07-21T02:52:44;19.20;99.90
21306;DHT22;10812;51.838;5.838;2022-07-21T02:55:13;19.20;99.90
21306;DHT22;10812;51.838;5.838;2022-07-21T02:57:41;19.20;99.90
21306;DHT22;10812;51.838;5.838;2022-07-21T03:08:21;19.30;99.90
21306;DHT22;10812;51.838;5.838;2022-07-21T03:10:49;19.20;99.90
21306;DHT22;10812;51.838;5.838;2022-07-21T03:13:18;19.30;99.90
21306;DHT22;10812;51.838;5.838;2022-07-21T03:15:46;19.30;99.90
21306;DHT22;10812;51.838;5.838;2022-07-21T03:18:14;19.30;99.90
21306;DHT22;10812;51.838;5.838;2022-07-21T03:20:43;19.30;99.90
21306;DHT22;10812;51.838;5.838;2022-07-21T03:23:11;19.20;99.90
21306;DHT22;10812;51.838;5.838;2022-07-21T03:25:41;19.20;99.90
21306;DHT22;10812;51.838;5.838;2022-07-21T03:28:09;19.20;99.90
21306;DHT22;10812;51.838;5.838;2022-07-21T03:30:37;19.20;99.90
21306;DHT22;10812;51.838;5.838;2022-07-21T03:33:06;19.20;99.90
21306;DHT22;10812;51.838;5.838;2022-07-21T03:35:34;19.30;99.90
21306;DHT22;10812;51.838;5.838;2022-07-21T03:38:04;19.20;99.90
21306;DHT22;10812;51.838;5.838;2022-07-21T03:40:34;19.20;99.90
21306;DHT22;10812;51.838;5.838;2022-07-21T03:43:05;19.20;99.90
21306;DHT22;10812;51.838;5.838;2022-07-21T03:45:35;19.20;99.90
21306;DHT22;10812;51.838;5.838;2022-07-21T03:48:38;19.30;99.90
21306;DHT22;10812;51.838;5.838;2022-07-21T03:51:06;19.30;99.90
21306;DHT22;10812;51.838;5.838;2022-07-21T03:53:36;19.20;99.90
21306;DHT22;10812;51.838;5.838;2022-07-21T03:56:04;19.20;99.90
21306;DHT22;10812;51.838;5.838;2022-07-21T03:58:34;19.20;99.90
21306;DHT22;10812;51.838;5.838;2022-07-21T04:01:02;19.20;99.90
21306;DHT22;10812;51.838;5.838;2022-07-21T04:03:30;19.20;99.90
21306;DHT22;10812;51.838;5.838;2022-07-21T04:06:01;19.30;99.90
21306;DHT22;10812;51.838;5.838;2022-07-21T04:08:29;19.30;99.90
21306;DHT22;10812;51.838;5.838;2022-07-21T04:10:57;19.20;99.90
21306;DHT22;10812;51.838;5.838;2022-07-21T04:13:26;19.20;99.90
21306;DHT22;10812;51.838;5.838;2022-07-21T04:15:55;19.20;99.90
21306;DHT22;10812;51.838;5.838;2022-07-21T04:18:23;19.20;99.90
21306;DHT22;10812;51.838;5.838;2022-07-21T04:20:51;19.20;99.90
21306;DHT22;10812;51.838;5.838;2022-07-21T04:23:19;19.20;99.90
21306;DHT22;10812;51.838;5.838;2022-07-21T04:25:48;19.20;99.90
21306;DHT22;10812;51.838;5.838;2022-07-21T04:28:16;19.20;99.90
21306;DHT22;10812;51.838;5.838;2022-07-21T04:30:44;19.20;99.90
21306;DHT22;10812;51.838;5.838;2022-07-21T04:33:13;19.20;99.90
21306;DHT22;10812;51.838;5.838;2022-07-21T04:35:42;19.20;99.90
21306;DHT22;10812;51.838;5.838;2022-07-21T04:38:10;19.20;99.90
21306;DHT22;10812;51.838;5.838;2022-07-21T04:40:38;19.20;99.90
21306;DHT22;10812;51.838;5.838;2022-07-21T04:43:06;19.10;99.90
21306;DHT22;10812;51.838;5.838;2022-07-21T04:45:35;19.10;99.90
21306;DHT22;10812;51.838;5.838;2022-07-21T04:48:03;19.20;99.90
21306;DHT22;10812;51.838;5.838;2022-07-21T04:50:33;19.20;99.90
21306;DHT22;10812;51.838;5.838;2022-07-21T04:53:01;19.20;99.90
21306;DHT22;10812;51.838;5.838;2022-07-21T04:55:29;19.20;99.90
21306;DHT22;10812;51.838;5.838;2022-07-21T04:57:57;19.10;99.90
21306;DHT22;10812;51.838;5.838;2022-07-21T05:00:26;19.10;99.90
21306;DHT22;10812;51.838;5.838;2022-07-21T05:02:55;19.10;99.90
21306;DHT22;10812;51.838;5.838;2022-07-21T05:05:24;19.00;99.90
21306;DHT22;10812;51.838;5.838;2022-07-21T05:07:54;18.90;99.90
21306;DHT22;10812;51.838;5.838;2022-07-21T05:10:22;18.90;99.90
21306;DHT22;10812;51.838;5.838;2022-07-21T05:12:51;18.90;99.90
21306;DHT22;10812;51.838;5.838;2022-07-21T05:15:19;18.90;99.90
21306;DHT22;10812;51.838;5.838;2022-07-21T05:17:47;18.90;99.90
21306;DHT22;10812;51.838;5.838;2022-07-21T05:20:15;18.90;99.90
21306;DHT22;10812;51.838;5.838;2022-07-21T05:22:43;18.90;99.90
21306;DHT22;10812;51.838;5.838;2022-07-21T05:25:13;18.90;99.90
21306;DHT22;10812;51.838;5.838;2022-07-21T05:27:41;18.90;99.90
21306;DHT22;10812;51.838;5.838;2022-07-21T05:30:10;18.90;99.90
21306;DHT22;10812;51.838;5.838;2022-07-21T05:32:38;18.90;99.90
21306;DHT22;10812;51.838;5.838;2022-07-21T05:35:14;19.00;99.90
21306;DHT22;10812;51.838;5.838;2022-07-21T05:37:42;18.90;99.90
21306;DHT22;10812;51.838;5.838;2022-07-21T05:40:10;18.90;99.90
21306;DHT22;10812;51.838;5.838;2022-07-21T05:42:40;18.90;99.90
21306;DHT22;10812;51.838;5.838;2022-07-21T05:45:09;18.90;99.90
21306;DHT22;10812;51.838;5.838;2022-07-21T05:47:39;19.00;99.90
21306;DHT22;10812;51.838;5.838;2022-07-21T05:50:08;19.00;99.90
21306;DHT22;10812;51.838;5.838;2022-07-21T05:52:36;19.00;99.90
21306;DHT22;10812;51.838;5.838;2022-07-21T05:55:05;19.10;99.90
21306;DHT22;10812;51.838;5.838;2022-07-21T05:57:34;19.20;99.90
21306;DHT22;10812;51.838;5.838;2022-07-21T06:00:11;19.30;99.90
21306;DHT22;10812;51.838;5.838;2022-07-21T06:02:40;19.40;99.90
21306;DHT22;10812;51.838;5.838;2022-07-21T06:05:08;19.50;99.90
21306;DHT22;10812;51.838;5.838;2022-07-21T06:07:39;19.70;99.90
21306;DHT22;10812;51.838;5.838;2022-07-21T06:10:08;19.80;99.90
21306;DHT22;10812;51.838;5.838;2022-07-21T06:12:41;19.90;99.90
21306;DHT22;10812;51.838;5.838;2022-07-21T06:15:12;19.90;99.90
21306;DHT22;10812;51.838;5.838;2022-07-21T06:17:41;20.00;99.90
21306;DHT22;10812;51.838;5.838;2022-07-21T06:20:10;20.00;99.90
21306;DHT22;10812;51.838;5.838;2022-07-21T06:22:38;20.00;99.90
21306;DHT22;10812;51.838;5.838;2022-07-21T06:25:07;20.00;99.90
21306;DHT22;10812;51.838;5.838;2022-07-21T06:35:19;20.20;99.90
21306;DHT22;10812;51.838;5.838;2022-07-21T06:37:47;20.30;99.90
21306;DHT22;10812;51.838;5.838;2022-07-21T06:40:16;20.50;99.90
21306;DHT22;10812;51.838;5.838;2022-07-21T06:42:44;20.40;99.90
21306;DHT22;10812;51.838;5.838;2022-07-21T06:45:32;20.40;99.90
21306;DHT22;10812;51.838;5.838;2022-07-21T06:48:02;20.50;99.90
21306;DHT22;10812;51.838;5.838;2022-07-21T06:50:32;20.50;99.90
21306;DHT22;10812;51.838;5.838;2022-07-21T06:53:01;20.60;99.90
21306;DHT22;10812;51.838;5.838;2022-07-21T06:55:30;20.80;99.90
21306;DHT22;10812;51.838;5.838;2022-07-21T06:58:07;20.90;99.90
21306;DHT22;10812;51.838;5.838;2022-07-21T07:00:36;21.10;99.90
21306;DHT22;10812;51.838;5.838;2022-07-21T07:03:05;21.10;99.90
21306;DHT22;10812;51.838;5.838;2022-07-21T07:05:35;21.20;99.90
21306;DHT22;10812;51.838;5.838;2022-07-21T07:08:04;21.40;99.90
21306;DHT22;10812;51.838;5.838;2022-07-21T07:10:38;21.20;99.90
21306;DHT22;10812;51.838;5.838;2022-07-21T07:13:06;21.10;99.90
21306;DHT22;10812;51.838;5.838;2022-07-21T07:15:54;21.20;99.90
21306;DHT22;10812;51.838;5.838;2022-07-21T07:18:22;21.30;99.90
21306;DHT22;10812;51.838;5.838;2022-07-21T07:20:53;21.30;99.90
21306;DHT22;10812;51.838;5.838;2022-07-21T07:23:21;21.30;99.90
21306;DHT22;10812;51.838;5.838;2022-07-21T07:25:49;21.50;99.90
21306;DHT22;10812;51.838;5.838;2022-07-21T07:28:17;21.50;99.90
21306;DHT22;10812;51.838;5.838;2022-07-21T07:30:46;21.60;99.90
21306;DHT22;10812;51.838;5.838;2022-07-21T07:33:15;21.80;99.90
21306;DHT22;10812;51.838;5.838;2022-07-21T07:35:43;21.80;99.90
21306;DHT22;10812;51.838;5.838;2022-07-21T07:38:14;21.60;99.90
21306;DHT22;10812;51.838;5.838;2022-07-21T07:40:43;21.70;99.90
21306;DHT22;10812;51.838;5.838;2022-07-21T07:43:11;21.80;99.90
21306;DHT22;10812;51.838;5.838;2022-07-21T07:45:39;21.90;99.90
21306;DHT22;10812;51.838;5.838;2022-07-21T07:48:07;21.90;99.90
21306;DHT22;10812;51.838;5.838;2022-07-21T07:50:35;21.90;99.90
21306;DHT22;10812;51.838;5.838;2022-07-21T07:53:03;21.90;99.90
21306;DHT22;10812;51.838;5.838;2022-07-21T07:55:33;21.90;99.90
21306;DHT22;10812;51.838;5.838;2022-07-21T07:58:02;21.90;99.90
21306;DHT22;10812;51.838;5.838;2022-07-21T08:00:30;22.00;99.90
21306;DHT22;10812;51.838;5.838;2022-07-21T08:03:18;22.10;99.90
21306;DHT22;10812;51.838;5.838;2022-07-21T08:05:47;21.90;99.90
21306;DHT22;10812;51.838;5.838;2022-07-21T08:08:16;21.70;99.90
21306;DHT22;10812;51.838;5.838;2022-07-21T08:10:45;21.50;99.90
21306;DHT22;10812;51.838;5.838;2022-07-21T08:13:15;21.30;99.90
21306;DHT22;10812;51.838;5.838;2022-07-21T08:15:46;21.20;99.90
21306;DHT22;10812;51.838;5.838;2022-07-21T08:18:15;21.10;99.90
21306;DHT22;10812;51.838;5.838;2022-07-21T08:20:43;21.20;99.90
21306;DHT22;10812;51.838;5.838;2022-07-21T08:23:12;21.20;99.90
21306;DHT22;10812;51.838;5.838;2022-07-21T08:25:41;21.30;99.90
21306;DHT22;10812;51.838;5.838;2022-07-21T08:28:11;21.50;99.90
21306;DHT22;10812;51.838;5.838;2022-07-21T08:30:39;21.60;99.90
21306;DHT22;10812;51.838;5.838;2022-07-21T08:33:08;21.80;99.90
21306;DHT22;10812;51.838;5.838;2022-07-21T08:35:36;21.70;99.90
21306;DHT22;10812;51.838;5.838;2022-07-21T08:38:06;21.60;99.90
21306;DHT22;10812;51.838;5.838;2022-07-21T08:40:37;21.50;99.90
21306;DHT22;10812;51.838;5.838;2022-07-21T08:43:05;21.50;99.90
21306;DHT22;10812;51.838;5.838;2022-07-21T08:45:37;21.40;99.90
21306;DHT22;10812;51.838;5.838;2022-07-21T08:48:06;21.30;99.90
21306;DHT22;10812;51.838;5.838;2022-07-21T08:50:37;21.30;99.90
21306;DHT22;10812;51.838;5.838;2022-07-21T08:53:05;21.40;99.90
21306;DHT22;10812;51.838;5.838;2022-07-21T08:55:36;21.30;99.90
21306;DHT22;10812;51.838;5.838;2022-07-21T08:58:07;21.10;99.90
21306;DHT22;10812;51.838;5.838;2022-07-21T09:00:38;21.00;99.90
21306;DHT22;10812;51.838;5.838;2022-07-21T09:03:12;21.00;99.90
21306;DHT22;10812;51.838;5.838;2022-07-21T09:05:41;21.10;99.90
21306;DHT22;10812;51.838;5.838;2022-07-21T09:08:10;21.10;99.90
21306;DHT22;10812;51.838;5.838;2022-07-21T09:10:38;21.20;99.90
21306;DHT22;10812;51.838;5.838;2022-07-21T09:13:07;21.40;99.90
21306;DHT22;10812;51.838;5.838;2022-07-21T09:15:37;21.30;99.90
21306;DHT22;10812;51.838;5.838;2022-07-21T09:18:11;21.20;99.90
21306;DHT22;10812;51.838;5.838;2022-07-21T09:20:47;21.10;99.90
21306;DHT22;10812;51.838;5.838;2022-07-21T09:23:18;20.80;99.90
21306;DHT22;10812;51.838;5.838;2022-07-21T09:25:48;20.50;99.90
21306;DHT22;10812;51.838;5.838;2022-07-21T09:28:18;20.20;99.90
21306;DHT22;10812;51.838;5.838;2022-07-21T09:30:54;20.00;99.90
21306;DHT22;10812;51.838;5.838;2022-07-21T09:33:26;19.90;99.90
21306;DHT22;10812;51.838;5.838;2022-07-21T09:35:57;19.80;99.90
21306;DHT22;10812;51.838;5.838;2022-07-21T09:38:27;19.80;99.90
21306;DHT22;10812;51.838;5.838;2022-07-21T09:41:03;19.70;99.90
21306;DHT22;10812;51.838;5.838;2022-07-21T09:43:41;19.70;99.90
21306;DHT22;10812;51.838;5.838;2022-07-21T09:46:16;19.60;99.90
21306;DHT22;10812;51.838;5.838;2022-07-21T09:48:48;19.40;99.90
21306;DHT22;10812;51.838;5.838;2022-07-21T09:51:37;19.40;99.90
21306;DHT22;10812;51.838;5.838;2022-07-21T09:54:10;19.40;99.90
21306;DHT22;10812;51.838;5.838;2022-07-21T09:56:40;19.30;99.90
21306;DHT22;10812;51.838;5.838;2022-07-21T09:59:10;19.30;99.90
21306;DHT22;10812;51.838;5.838;2022-07-21T10:01:40;19.20;99.90
21306;DHT22;10812;51.838;5.838;2022-07-21T10:04:09;19.20;99.90
21306;DHT22;10812;51.838;5.838;2022-07-21T10:06:39;19.30;99.90
21306;DHT22;10812;51.838;5.838;2022-07-21T10:09:09;19.30;99.90
21306;DHT22;10812;51.838;5.838;2022-07-21T10:11:40;19.30;99.90
21306;DHT22;10812;51.838;5.838;2022-07-21T10:14:10;19.30;99.90
21306;DHT22;10812;51.838;5.838;2022-07-21T10:16:39;19.30;99.90
21306;DHT22;10812;51.838;5.838;2022-07-21T10:19:21;19.40;99.90
21306;DHT22;10812;51.838;5.838;2022-07-21T10:21:58;19.50;99.90
21306;DHT22;10812;51.838;5.838;2022-07-21T10:24:28;19.50;99.90
21306;DHT22;10812;51.838;5.838;2022-07-21T10:27:05;19.60;99.90
21306;DHT22;10812;51.838;5.838;2022-07-21T10:29:49;19.60;99.90
21306;DHT22;10812;51.838;5.838;2022-07-21T10:32:31;19.70;99.90
21306;DHT22;10812;51.838;5.838;2022-07-21T10:35:03;19.60;99.90
21306;DHT22;10812;51.838;5.838;2022-07-21T10:37:49;19.60;99.90
21306;DHT22;10812;51.838;5.838;2022-07-21T10:40:37;19.50;99.90
21306;DHT22;10812;51.838;5.838;2022-07-21T10:43:37;19.50;99.90
21306;DHT22;10812;51.838;5.838;2022-07-21T10:46:33;19.50;99.90
21306;DHT22;10812;51.838;5.838;2022-07-21T10:49:05;19.50;99.90
21306;DHT22;10812;51.838;5.838;2022-07-21T10:51:35;19.40;99.90
21306;DHT22;10812;51.838;5.838;2022-07-21T10:54:22;19.30;99.90
21306;DHT22;10812;51.838;5.838;2022-07-21T10:57:23;19.30;99.90
21306;DHT22;10812;51.838;5.838;2022-07-21T11:00:17;19.40;99.90
21306;DHT22;10812;51.838;5.838;2022-07-21T11:02:50;19.40;99.90
21306;DHT22;10812;51.838;5.838;2022-07-21T11:05:20;19.50;99.90
21306;DHT22;10812;51.838;5.838;2022-07-21T11:08:11;19.50;99.90
21306;DHT22;10812;51.838;5.838;2022-07-21T11:10:41;19.70;99.90
21306;DHT22;10812;51.838;5.838;2022-07-21T11:13:10;19.90;99.90
21306;DHT22;10812;51.838;5.838;2022-07-21T11:15:56;20.00;99.90
21306;DHT22;10812;51.838;5.838;2022-07-21T11:18:26;20.10;99.90
21306;DHT22;10812;51.838;5.838;2022-07-21T11:21:07;20.10;99.90
21306;DHT22;10812;51.838;5.838;2022-07-21T11:23:37;20.10;99.90
21306;DHT22;10812;51.838;5.838;2022-07-21T11:26:06;20.10;99.90
21306;DHT22;10812;51.838;5.838;2022-07-21T11:28:35;20.00;99.90
21306;DHT22;10812;51.838;5.838;2022-07-21T11:31:08;20.10;99.90
21306;DHT22;10812;51.838;5.838;2022-07-21T11:33:38;20.10;99.90
21306;DHT22;10812;51.838;5.838;2022-07-21T11:36:08;20.10;99.90
21306;DHT22;10812;51.838;5.838;2022-07-21T11:38:56;20.10;99.90
21306;DHT22;10812;51.838;5.838;2022-07-21T11:41:24;20.10;99.90
21306;DHT22;10812;51.838;5.838;2022-07-21T11:43:52;20.10;99.90
21306;DHT22;10812;51.838;5.838;2022-07-21T11:46:21;20.00;99.90
21306;DHT22;10812;51.838;5.838;2022-07-21T11:49:00;20.00;99.90
21306;DHT22;10812;51.838;5.838;2022-07-21T11:51:30;20.10;99.90
21306;DHT22;10812;51.838;5.838;2022-07-21T11:53:58;20.20;99.90
21306;DHT22;10812;51.838;5.838;2022-07-21T11:56:27;20.30;99.90
21306;DHT22;10812;51.838;5.838;2022-07-21T11:59:08;20.30;99.90
21306;DHT22;10812;51.838;5.838;2022-07-21T12:01:54;20.30;99.90
21306;DHT22;10812;51.838;5.838;2022-07-21T12:04:31;20.30;99.90
21306;DHT22;10812;51.838;5.838;2022-07-21T12:07:03;20.30;99.90
21306;DHT22;10812;51.838;5.838;2022-07-21T12:09:32;20.30;99.90
21306;DHT22;10812;51.838;5.838;2022-07-21T12:12:01;20.50;99.90
21306;DHT22;10812;51.838;5.838;2022-07-21T12:14:44;20.60;99.90
21306;DHT22;10812;51.838;5.838;2022-07-21T12:17:13;20.60;99.90
21306;DHT22;10812;51.838;5.838;2022-07-21T12:19:42;20.50;99.90
21306;DHT22;10812;51.838;5.838;2022-07-21T12:22:11;20.40;99.90
21306;DHT22;10812;51.838;5.838;2022-07-21T12:24:51;20.30;99.90
21306;DHT22;10812;51.838;5.838;2022-07-21T12:27:20;20.20;99.90
21306;DHT22;10812;51.838;5.838;2022-07-21T12:29:49;20.10;99.90
21306;DHT22;10812;51.838;5.838;2022-07-21T12:32:44;20.10;99.90
21306;DHT22;10812;51.838;5.838;2022-07-21T12:35:18;19.80;99.90
21306;DHT22;10812;51.838;5.838;2022-07-21T12:38:00;19.80;99.90
21306;DHT22;10812;51.838;5.838;2022-07-21T12:40:30;19.50;99.90
21306;DHT22;10812;51.838;5.838;2022-07-21T12:43:07;19.50;99.90
21306;DHT22;10812;51.838;5.838;2022-07-21T12:45:47;19.40;99.90
21306;DHT22;10812;51.838;5.838;2022-07-21T12:48:17;19.40;99.90
21306;DHT22;10812;51.838;5.838;2022-07-21T12:51:03;19.40;99.90
21306;DHT22;10812;51.838;5.838;2022-07-21T12:53:34;19.40;99.90
21306;DHT22;10812;51.838;5.838;2022-07-21T12:56:03;19.30;99.90
21306;DHT22;10812;51.838;5.838;2022-07-21T12:58:32;19.40;99.90
21306;DHT22;10812;51.838;5.838;2022-07-21T13:01:00;19.40;99.90
21306;DHT22;10812;51.838;5.838;2022-07-21T13:03:29;19.50;99.90
21306;DHT22;10812;51.838;5.838;2022-07-21T13:05:58;19.50;99.90
21306;DHT22;10812;51.838;5.838;2022-07-21T13:08:27;19.50;99.90
21306;DHT22;10812;51.838;5.838;2022-07-21T13:10:57;19.70;99.90
21306;DHT22;10812;51.838;5.838;2022-07-21T13:13:25;19.90;99.90
21306;DHT22;10812;51.838;5.838;2022-07-21T13:15:54;20.10;99.90
21306;DHT22;10812;51.838;5.838;2022-07-21T13:18:23;20.20;99.90
21306;DHT22;10812;51.838;5.838;2022-07-21T13:20:52;20.30;99.90
21306;DHT22;10812;51.838;5.838;2022-07-21T13:23:21;20.30;99.90
21306;DHT22;10812;51.838;5.838;2022-07-21T13:25:49;20.40;99.90
21306;DHT22;10812;51.838;5.838;2022-07-21T13:28:31;20.60;99.90
21306;DHT22;10812;51.838;5.838;2022-07-21T13:31:03;20.60;99.90
21306;DHT22;10812;51.838;5.838;2022-07-21T13:33:31;20.70;99.90
21306;DHT22;10812;51.838;5.838;2022-07-21T13:35:59;20.90;99.90
21306;DHT22;10812;51.838;5.838;2022-07-21T13:38:28;20.70;99.90
21306;DHT22;10812;51.838;5.838;2022-07-21T13:40:57;20.50;99.90
21306;DHT22;10812;51.838;5.838;2022-07-21T13:43:46;20.30;99.90
21306;DHT22;10812;51.838;5.838;2022-07-21T13:46:14;20.20;99.90
21306;DHT22;10812;51.838;5.838;2022-07-21T13:48:43;20.00;99.90
21306;DHT22;10812;51.838;5.838;2022-07-21T13:51:12;20.00;99.90
21306;DHT22;10812;51.838;5.838;2022-07-21T13:53:41;20.10;99.90
21306;DHT22;10812;51.838;5.838;2022-07-21T13:56:10;20.10;99.90
21306;DHT22;10812;51.838;5.838;2022-07-21T13:58:38;20.20;99.90
21306;DHT22;10812;51.838;5.838;2022-07-21T14:01:09;20.30;99.90
21306;DHT22;10812;51.838;5.838;2022-07-21T14:03:38;20.20;99.90
21306;DHT22;10812;51.838;5.838;2022-07-21T14:06:06;20.10;99.90
21306;DHT22;10812;51.838;5.838;2022-07-21T14:08:35;19.90;99.90
21306;DHT22;10812;51.838;5.838;2022-07-21T14:11:03;19.80;99.90
21306;DHT22;10812;51.838;5.838;2022-07-21T14:13:33;19.80;99.90
21306;DHT22;10812;51.838;5.838;2022-07-21T14:16:02;19.90;99.90
21306;DHT22;10812;51.838;5.838;2022-07-21T14:18:32;20.10;99.90
21306;DHT22;10812;51.838;5.838;2022-07-21T14:21:00;20.30;99.90
21306;DHT22;10812;51.838;5.838;2022-07-21T14:23:29;20.40;99.90
21306;DHT22;10812;51.838;5.838;2022-07-21T14:25:59;20.40;99.90
21306;DHT22;10812;51.838;5.838;2022-07-21T14:28:26;20.20;99.90
21306;DHT22;10812;51.838;5.838;2022-07-21T14:30:54;20.10;99.90
21306;DHT22;10812;51.838;5.838;2022-07-21T14:33:26;20.00;99.90
21306;DHT22;10812;51.838;5.838;2022-07-21T14:35:57;20.00;99.90
21306;DHT22;10812;51.838;5.838;2022-07-21T14:38:25;20.00;99.90
21306;DHT22;10812;51.838;5.838;2022-07-21T14:40:54;20.10;99.90
21306;DHT22;10812;51.838;5.838;2022-07-21T14:43:22;20.20;99.90
21306;DHT22;10812;51.838;5.838;2022-07-21T14:45:50;20.20;99.90
21306;DHT22;10812;51.838;5.838;2022-07-21T14:48:18;20.40;99.90
21306;DHT22;10812;51.838;5.838;2022-07-21T14:50:50;20.30;99.90
21306;DHT22;10812;51.838;5.838;2022-07-21T14:53:20;20.20;99.90
21306;DHT22;10812;51.838;5.838;2022-07-21T14:55:48;20.20;99.90
21306;DHT22;10812;51.838;5.838;2022-07-21T14:58:16;20.10;99.90
21306;DHT22;10812;51.838;5.838;2022-07-21T15:00:44;20.20;99.90
21306;DHT22;10812;51.838;5.838;2022-07-21T15:03:12;20.10;99.90
21306;DHT22;10812;51.838;5.838;2022-07-21T15:05:42;20.10;99.90
21306;DHT22;10812;51.838;5.838;2022-07-21T15:08:10;19.90;99.90
21306;DHT22;10812;51.838;5.838;2022-07-21T15:10:42;19.70;99.90
21306;DHT22;10812;51.838;5.838;2022-07-21T15:13:10;19.60;99.90
21306;DHT22;10812;51.838;5.838;2022-07-21T15:15:39;19.50;99.90
21306;DHT22;10812;51.838;5.838;2022-07-21T15:18:08;19.50;99.90
21306;DHT22;10812;51.838;5.838;2022-07-21T15:20:36;19.50;99.90
21306;DHT22;10812;51.838;5.838;2022-07-21T15:23:04;19.40;99.90
21306;DHT22;10812;51.838;5.838;2022-07-21T15:25:33;19.40;99.90
21306;DHT22;10812;51.838;5.838;2022-07-21T15:28:03;19.50;99.90
21306;DHT22;10812;51.838;5.838;2022-07-21T15:30:33;19.40;99.90
21306;DHT22;10812;51.838;5.838;2022-07-21T15:33:01;19.40;99.90
21306;DHT22;10812;51.838;5.838;2022-07-21T15:35:29;19.40;99.90
21306;DHT22;10812;51.838;5.838;2022-07-21T15:37:57;19.40;99.90
21306;DHT22;10812;51.838;5.838;2022-07-21T15:40:25;19.40;99.90
21306;DHT22;10812;51.838;5.838;2022-07-21T15:42:54;19.30;99.90
21306;DHT22;10812;51.838;5.838;2022-07-21T15:45:23;19.30;99.90
21306;DHT22;10812;51.838;5.838;2022-07-21T15:47:51;19.20;99.90
21306;DHT22;10812;51.838;5.838;2022-07-21T15:50:20;19.20;99.90
21306;DHT22;10812;51.838;5.838;2022-07-21T15:52:48;19.20;99.90
21306;DHT22;10812;51.838;5.838;2022-07-21T15:55:16;19.20;99.90
21306;DHT22;10812;51.838;5.838;2022-07-21T15:57:44;19.20;99.90
21306;DHT22;10812;51.838;5.838;2022-07-21T16:00:13;19.30;99.90
21306;DHT22;10812;51.838;5.838;2022-07-21T16:02:43;19.30;99.90
21306;DHT22;10812;51.838;5.838;2022-07-21T16:05:13;19.30;99.90
21306;DHT22;10812;51.838;5.838;2022-07-21T16:07:42;19.30;99.90
21306;DHT22;10812;51.838;5.838;2022-07-21T16:10:12;19.30;99.90
21306;DHT22;10812;51.838;5.838;2022-07-21T16:12:40;19.30;99.90
21306;DHT22;10812;51.838;5.838;2022-07-21T16:15:10;19.30;99.90
21306;DHT22;10812;51.838;5.838;2022-07-21T16:17:39;19.30;99.90
21306;DHT22;10812;51.838;5.838;2022-07-21T16:20:10;19.30;99.90